createdAt,value
2023-05-14T00:01:51.975Z,8.52
2023-05-14T00:04:22.413Z,7.43
2023-05-14T00:06:49.678Z,8.07
2023-05-14T00:09:17.162Z,7.40
2023-05-14T00:11:44.613Z,7.75
2023-05-14T00:14:12.200Z,8.20
2023-05-14T00:16:39.453Z,8.68
2023-05-14T00:19:07.050Z,7.90
2023-05-14T00:21:34.331Z,8.30
2023-05-14T00:24:01.593Z,7.55
2023-05-14T00:26:29.064Z,8.88
2023-05-14T00:28:56.272Z,7.60
2023-05-14T00:31:23.583Z,8.60
2023-05-14T00:33:51.278Z,8.27
2023-05-14T00:36:18.460Z,8.07
2023-05-14T00:38:45.756Z,8.18
2023-05-14T00:41:13.195Z,7.80
2023-05-14T00:43:40.680Z,8.25
2023-05-14T00:46:09.959Z,8.68
2023-05-14T00:48:37.516Z,9.48
2023-05-14T00:51:04.864Z,10.32
2023-05-14T00:53:32.057Z,8.50
2023-05-14T00:55:59.662Z,8.68
2023-05-14T00:58:26.918Z,8.70
2023-05-14T01:00:54.257Z,8.85
2023-05-14T01:03:21.934Z,8.55
2023-05-14T01:05:49.107Z,7.50
2023-05-14T01:08:26.026Z,8.30
2023-05-14T01:11:00.698Z,8.43
2023-05-14T01:13:34.520Z,7.75
2023-05-14T01:16:02.923Z,8.15
2023-05-14T01:18:31.341Z,7.72
2023-05-14T01:20:58.730Z,7.93
2023-05-14T01:23:26.398Z,8.02
2023-05-14T01:25:53.582Z,7.53
2023-05-14T01:28:25.328Z,7.15
2023-05-14T01:31:07.076Z,7.62
2023-05-14T01:33:35.484Z,7.12
2023-05-14T01:36:03.795Z,6.55
2023-05-14T01:38:34.169Z,7.20
2023-05-14T01:43:30.192Z,6.65
2023-05-14T01:45:57.376Z,7.05
2023-05-14T01:48:25.817Z,6.50
2023-05-14T01:50:53.307Z,6.40
2023-05-14T01:53:20.756Z,6.85
2023-05-14T01:55:48.201Z,6.35
2023-05-14T01:58:15.741Z,6.32
2023-05-14T02:00:43.953Z,6.87
2023-05-14T02:03:11.798Z,6.85
2023-05-14T02:05:39.077Z,6.30
2023-05-14T02:08:06.278Z,6.10
2023-05-14T02:10:33.833Z,6.30
2023-05-14T02:13:01.386Z,5.78
2023-05-14T02:15:28.635Z,6.20
2023-05-14T02:17:55.824Z,5.78
2023-05-14T02:20:23.494Z,6.10
2023-05-14T02:22:50.870Z,6.18
2023-05-14T02:25:18.057Z,5.97
2023-05-14T02:27:45.910Z,6.45
2023-05-14T02:30:13.407Z,6.10
2023-05-14T02:32:40.968Z,6.12
2023-05-14T02:35:09.251Z,6.43
2023-05-14T02:37:37.620Z,6.12
2023-05-14T02:40:05.374Z,6.03
2023-05-14T02:42:32.819Z,6.37
2023-05-14T02:45:00.031Z,5.68
2023-05-14T02:47:27.300Z,6.47
2023-05-14T02:49:54.773Z,6.03
2023-05-14T02:52:22.196Z,5.65
2023-05-14T02:54:49.553Z,6.80
2023-05-14T02:57:17.011Z,5.80
2023-05-14T02:59:44.126Z,6.53
2023-05-14T03:02:11.768Z,6.68
2023-05-14T03:04:40.051Z,6.00
2023-05-14T03:07:07.399Z,6.03
2023-05-14T03:09:36.009Z,6.68
2023-05-14T03:12:05.080Z,5.95
2023-05-14T03:14:32.520Z,5.80
2023-05-14T03:16:59.719Z,6.57
2023-05-14T03:19:27.254Z,6.68
2023-05-14T03:21:54.587Z,6.43
2023-05-14T03:24:21.751Z,6.95
2023-05-14T03:26:49.221Z,7.00
2023-05-14T03:29:18.200Z,5.50
2023-05-14T03:31:45.375Z,5.85
2023-05-14T03:34:12.868Z,5.72
2023-05-14T03:36:40.115Z,6.35
2023-05-14T03:39:07.288Z,5.50
2023-05-14T03:41:36.458Z,5.80
2023-05-14T03:44:03.602Z,6.30
2023-05-14T03:46:30.796Z,6.70
2023-05-14T03:48:58.547Z,5.82
2023-05-14T03:51:25.974Z,5.53
2023-05-14T03:53:53.069Z,5.62
2023-05-14T03:56:20.842Z,5.68
2023-05-14T03:58:47.992Z,5.87
2023-05-14T04:01:15.485Z,6.05
2023-05-14T04:03:43.268Z,5.15
2023-05-14T04:06:11.154Z,4.97
2023-05-14T04:08:38.340Z,5.50
2023-05-14T04:11:06.083Z,4.53
2023-05-14T04:13:33.241Z,5.25
2023-05-14T04:16:00.647Z,4.80
2023-05-14T04:18:28.335Z,5.57
2023-05-14T04:20:55.782Z,5.00
2023-05-14T04:23:22.967Z,5.28
2023-05-14T04:25:50.374Z,5.00
2023-05-14T04:28:17.476Z,5.20
2023-05-14T04:30:45.771Z,4.35
2023-05-14T04:33:13.262Z,4.62
2023-05-14T04:35:40.540Z,4.80
2023-05-14T04:38:07.685Z,4.37
2023-05-14T04:40:35.222Z,4.68
2023-05-14T04:43:02.377Z,5.00
2023-05-14T04:45:29.542Z,4.90
2023-05-14T04:47:57.004Z,5.12
2023-05-14T04:50:24.379Z,5.65
2023-05-14T04:52:51.764Z,5.10
2023-05-14T04:55:19.222Z,5.70
2023-05-14T04:57:46.361Z,5.35
2023-05-14T05:00:13.963Z,4.75
2023-05-14T05:02:41.676Z,4.75
2023-05-14T05:05:09.561Z,5.20
2023-05-14T05:07:36.786Z,5.45
2023-05-14T05:10:04.506Z,4.95
2023-05-14T05:12:31.824Z,5.22
2023-05-14T05:14:59.144Z,5.03
2023-05-14T05:17:26.744Z,5.43
2023-05-14T05:19:53.950Z,5.53
2023-05-14T05:22:21.365Z,6.30
2023-05-14T05:24:50.095Z,5.90
2023-05-14T05:27:17.397Z,5.55
2023-05-14T05:29:44.745Z,5.37
2023-05-14T05:32:12.177Z,5.87
2023-05-14T05:34:39.312Z,4.97
2023-05-14T05:37:06.453Z,4.80
2023-05-14T05:39:35.216Z,5.37
2023-05-14T05:42:02.809Z,5.45
2023-05-14T05:44:30.039Z,5.32
2023-05-14T05:46:57.903Z,6.12
2023-05-14T05:49:25.140Z,6.05
2023-05-14T05:51:52.267Z,6.05
2023-05-14T05:54:19.845Z,5.70
2023-05-14T05:56:46.980Z,5.95
2023-05-14T05:59:14.159Z,5.65
2023-05-14T06:01:43.546Z,6.60
2023-05-14T06:04:11.069Z,6.07
2023-05-14T06:06:38.461Z,6.43
2023-05-14T06:09:07.085Z,6.12
2023-05-14T06:11:35.067Z,6.50
2023-05-14T06:14:04.781Z,6.25
2023-05-14T06:16:32.105Z,5.70
2023-05-14T06:18:59.607Z,6.47
2023-05-14T06:21:26.903Z,6.60
2023-05-14T06:23:54.004Z,7.85
2023-05-14T06:26:21.985Z,8.25
2023-05-14T06:28:49.179Z,7.20
2023-05-14T06:31:16.430Z,7.40
2023-05-14T06:33:43.903Z,7.20
2023-05-14T06:36:11.234Z,7.07
2023-05-14T06:38:38.401Z,6.80
2023-05-14T06:41:05.917Z,7.03
2023-05-14T06:43:33.325Z,7.28
2023-05-14T06:46:01.388Z,6.35
2023-05-14T06:48:29.609Z,7.62
2023-05-14T06:50:56.944Z,7.35
2023-05-14T06:53:24.093Z,7.00
2023-05-14T06:55:51.642Z,7.15
2023-05-14T06:58:18.835Z,7.93
2023-05-14T07:00:46.079Z,7.35
2023-05-14T07:03:13.561Z,7.45
2023-05-14T07:05:41.385Z,7.28
2023-05-14T07:08:08.607Z,7.78
2023-05-14T07:10:36.036Z,7.95
2023-05-14T07:13:03.693Z,7.20
2023-05-14T07:15:31.345Z,7.35
2023-05-14T07:17:59.004Z,7.85
2023-05-14T07:20:26.461Z,7.55
2023-05-14T07:22:54.226Z,7.80
2023-05-14T07:25:22.334Z,6.80
2023-05-14T07:27:49.552Z,7.18
2023-05-14T07:30:16.725Z,6.82
2023-05-14T07:32:44.818Z,6.57
2023-05-14T07:35:12.084Z,6.68
2023-05-14T07:37:39.414Z,6.78
2023-05-14T07:40:07.487Z,7.65
2023-05-14T07:42:36.983Z,7.00
2023-05-14T07:45:05.391Z,6.90
2023-05-14T07:47:33.324Z,7.53
2023-05-14T07:50:00.896Z,7.35
2023-05-14T07:52:28.076Z,7.30
2023-05-14T07:54:55.753Z,7.10
2023-05-14T07:57:22.890Z,6.80
2023-05-14T07:59:50.120Z,6.82
2023-05-14T08:02:17.858Z,7.80
2023-05-14T08:04:45.821Z,7.12
2023-05-14T08:07:13.272Z,7.60
2023-05-14T08:09:40.830Z,6.60
2023-05-14T08:12:08.597Z,7.10
2023-05-14T08:14:35.785Z,7.37
2023-05-14T08:17:03.555Z,7.80
2023-05-14T08:19:31.262Z,7.62
2023-05-14T08:21:58.441Z,8.15
2023-05-14T08:24:26.050Z,7.70
2023-05-14T08:26:53.745Z,8.63
2023-05-14T08:29:21.213Z,7.05
2023-05-14T08:31:54.440Z,8.77
2023-05-14T08:34:24.751Z,7.55
2023-05-14T08:36:52.091Z,7.85
2023-05-14T08:39:19.339Z,7.80
2023-05-14T08:41:46.875Z,8.38
2023-05-14T08:44:39.444Z,8.00
2023-05-14T08:47:07.316Z,7.15
2023-05-14T08:49:47.058Z,8.35
2023-05-14T08:52:16.365Z,7.53
2023-05-14T08:54:43.668Z,7.18
2023-05-14T08:57:11.501Z,7.00
2023-05-14T08:59:39.012Z,8.77
2023-05-14T09:02:07.058Z,8.98
2023-05-14T09:04:35.117Z,8.15
2023-05-14T09:07:04.212Z,7.97
2023-05-14T09:09:31.429Z,7.82
2023-05-14T09:11:58.905Z,8.05
2023-05-14T09:14:26.428Z,9.25
2023-05-14T09:16:54.865Z,8.07
2023-05-14T09:22:24.746Z,8.52
2023-05-14T09:25:09.666Z,8.98
2023-05-14T09:27:37.704Z,8.25
2023-05-14T09:30:13.256Z,8.05
2023-05-14T09:32:46.035Z,7.72
2023-05-14T09:35:21.700Z,7.97
2023-05-14T09:37:52.930Z,8.25
2023-05-14T09:40:23.626Z,9.00
2023-05-14T09:42:51.988Z,8.73
2023-05-14T09:45:19.375Z,9.18
2023-05-14T09:47:46.812Z,8.85
2023-05-14T09:50:14.994Z,8.95
2023-05-14T09:52:42.498Z,10.65
2023-05-14T09:55:11.190Z,9.63
2023-05-14T09:57:39.208Z,8.15
2023-05-14T10:00:09.023Z,8.50
2023-05-14T10:02:38.184Z,9.23
2023-05-14T10:05:06.600Z,10.48
2023-05-14T10:07:39.267Z,9.55
2023-05-14T10:13:04.683Z,9.43
2023-05-14T10:15:44.219Z,9.32
2023-05-14T10:18:13.630Z,9.65
2023-05-14T10:20:43.440Z,10.23
2023-05-14T10:23:11.015Z,10.15
2023-05-14T10:25:38.670Z,11.40
2023-05-14T10:28:06.572Z,10.25
2023-05-14T10:30:33.915Z,13.25
2023-05-14T10:33:09.384Z,11.05
2023-05-14T10:36:09.755Z,9.70
2023-05-14T10:38:41.329Z,11.10
2023-05-14T10:41:15.164Z,13.75
2023-05-14T10:43:44.493Z,13.80
2023-05-14T10:46:13.703Z,23.48
2023-05-14T10:48:44.522Z,9.18
2023-05-14T10:51:13.074Z,11.23
2023-05-14T10:53:51.257Z,7.75
2023-05-14T10:56:19.959Z,9.38
2023-05-14T10:58:50.677Z,9.65
2023-05-14T11:01:50.839Z,11.20
2023-05-14T11:04:24.348Z,8.63
2023-05-14T11:06:53.866Z,16.35
2023-05-14T11:09:22.837Z,8.50
2023-05-14T11:11:50.724Z,8.57
2023-05-14T11:14:18.370Z,9.15
2023-05-14T11:16:47.367Z,8.23
2023-05-14T11:19:14.878Z,8.68
2023-05-14T11:21:42.530Z,9.52
2023-05-14T11:24:11.367Z,9.15
2023-05-14T11:26:38.962Z,8.20
2023-05-14T11:29:07.335Z,9.20
2023-05-14T11:31:42.575Z,17.98
2023-05-14T11:34:14.754Z,10.57
2023-05-14T11:36:42.610Z,9.98
2023-05-14T11:39:10.154Z,13.70
2023-05-14T11:41:37.473Z,9.00
2023-05-14T11:44:06.756Z,8.05
2023-05-14T11:46:35.688Z,8.60
2023-05-14T11:49:06.908Z,12.10
2023-05-14T11:51:34.594Z,9.80
2023-05-14T11:54:04.068Z,8.63
2023-05-14T11:56:31.317Z,10.38
2023-05-14T11:58:58.988Z,10.38
2023-05-14T12:01:26.366Z,9.55
2023-05-14T12:03:54.031Z,11.30
2023-05-14T12:06:21.823Z,11.02
2023-05-14T12:08:49.590Z,10.55
2023-05-14T12:11:21.320Z,10.55
2023-05-14T12:13:48.596Z,11.45
2023-05-14T12:16:17.773Z,12.10
2023-05-14T12:18:45.632Z,11.20
2023-05-14T12:21:13.492Z,12.20
2023-05-14T12:23:40.860Z,13.75
2023-05-14T12:26:09.269Z,14.30
2023-05-14T12:28:43.358Z,14.48
2023-05-14T12:31:11.598Z,11.90
2023-05-14T12:33:39.234Z,12.07
2023-05-14T12:38:37.810Z,10.48
2023-05-14T12:41:05.729Z,11.30
2023-05-14T12:43:33.068Z,24.10
2023-05-14T12:46:04.170Z,23.10
2023-05-14T12:48:32.512Z,11.23
2023-05-14T12:51:00.128Z,12.05
2023-05-14T12:53:28.063Z,10.88
2023-05-14T12:55:56.654Z,11.20
2023-05-14T12:58:27.197Z,12.13
2023-05-14T13:00:55.172Z,11.95
2023-05-14T13:03:23.063Z,11.85
2023-05-14T13:05:54.486Z,11.60
2023-05-14T13:08:25.095Z,12.27
2023-05-14T13:10:53.111Z,12.82
2023-05-14T13:13:20.702Z,12.13
2023-05-14T13:15:49.052Z,11.60
2023-05-14T13:18:18.604Z,35.25
2023-05-14T13:20:47.767Z,12.60
2023-05-14T13:23:16.946Z,12.53
2023-05-14T13:25:44.571Z,11.70
2023-05-14T13:28:12.281Z,12.75
2023-05-14T13:30:39.864Z,12.77
2023-05-14T13:33:07.396Z,13.00
2023-05-14T13:35:40.352Z,12.70
2023-05-14T13:38:12.526Z,12.18
2023-05-14T13:40:40.979Z,12.82
2023-05-14T13:43:29.184Z,13.82
2023-05-14T13:45:57.452Z,13.90
2023-05-14T13:48:25.811Z,17.27
2023-05-14T13:50:53.586Z,12.32
2023-05-14T13:53:22.140Z,12.00
2023-05-14T13:55:56.676Z,27.67
2023-05-14T13:58:28.018Z,31.60
2023-05-14T14:00:56.666Z,22.37
2023-05-14T14:03:24.308Z,19.08
2023-05-14T14:05:52.659Z,12.37
2023-05-14T14:08:23.790Z,12.13
2023-05-14T14:10:55.085Z,13.38
2023-05-14T14:13:23.097Z,13.43
2023-05-14T14:15:50.660Z,12.85
2023-05-14T14:18:18.256Z,11.30
2023-05-14T14:20:45.565Z,11.25
2023-05-14T14:23:12.930Z,7.78
2023-05-14T14:25:40.821Z,8.88
2023-05-14T14:28:10.069Z,7.82
2023-05-14T14:30:38.104Z,7.47
2023-05-14T14:33:05.756Z,8.48
2023-05-14T14:35:33.744Z,8.32
2023-05-14T14:38:01.016Z,9.07
2023-05-14T14:40:30.206Z,8.52
2023-05-14T14:42:57.822Z,8.45
2023-05-14T14:45:25.427Z,8.13
2023-05-14T14:48:37.656Z,8.25
2023-05-14T14:51:06.205Z,7.93
2023-05-14T14:53:34.630Z,7.57
2023-05-14T14:56:02.177Z,7.37
2023-05-14T14:58:29.376Z,9.50
2023-05-14T15:00:57.925Z,8.20
2023-05-14T15:03:26.056Z,7.57
2023-05-14T15:05:53.999Z,7.90
2023-05-14T15:08:26.194Z,8.43
2023-05-14T15:10:54.090Z,8.70
2023-05-14T15:13:21.897Z,9.35
2023-05-14T15:15:50.802Z,11.30
2023-05-14T15:18:19.246Z,11.57
2023-05-14T15:20:46.850Z,7.22
2023-05-14T15:23:15.274Z,6.60
2023-05-14T15:25:42.736Z,8.90
2023-05-14T15:28:10.317Z,8.70
2023-05-14T15:30:37.502Z,7.93
2023-05-14T15:33:07.734Z,8.35
2023-05-14T15:35:36.558Z,7.37
2023-05-14T15:38:03.863Z,5.85
2023-05-14T15:40:33.172Z,7.87
2023-05-14T15:43:00.935Z,8.05
2023-05-14T15:45:28.407Z,7.20
2023-05-14T15:47:55.774Z,7.10
2023-05-14T15:50:23.671Z,9.75
2023-05-14T15:52:51.014Z,7.50
2023-05-14T15:55:18.394Z,10.85
2023-05-14T15:57:46.050Z,8.55
2023-05-14T16:00:14.514Z,7.65
2023-05-14T16:02:42.132Z,12.50
2023-05-14T16:05:09.677Z,7.43
2023-05-14T16:07:37.711Z,9.13
2023-05-14T16:10:06.306Z,7.90
2023-05-14T16:12:33.774Z,7.37
2023-05-14T16:15:01.179Z,7.10
2023-05-14T16:17:29.982Z,8.15
2023-05-14T16:19:57.524Z,7.90
2023-05-14T16:22:24.898Z,7.82
2023-05-14T16:24:52.396Z,8.63
2023-05-14T16:27:19.747Z,7.68
2023-05-14T16:29:47.206Z,7.57
2023-05-14T16:32:16.984Z,7.85
2023-05-14T16:34:49.931Z,7.57
2023-05-14T16:37:19.240Z,7.82
2023-05-14T16:39:46.532Z,8.30
2023-05-14T16:42:14.055Z,8.50
2023-05-14T16:44:41.733Z,7.87
2023-05-14T16:47:09.157Z,8.18
2023-05-14T16:49:36.455Z,9.43
2023-05-14T16:52:04.198Z,8.80
2023-05-14T16:54:31.407Z,8.57
2023-05-14T16:56:58.656Z,8.63
2023-05-14T16:59:26.103Z,6.90
2023-05-14T17:01:53.517Z,8.15
2023-05-14T17:04:21.277Z,8.82
2023-05-14T17:06:49.259Z,8.02
2023-05-14T17:09:17.038Z,8.20
2023-05-14T17:11:44.361Z,8.32
2023-05-14T17:14:11.958Z,8.68
2023-05-14T17:16:40.609Z,9.90
2023-05-14T17:19:08.577Z,9.57
2023-05-14T17:21:36.160Z,6.78
2023-05-14T17:24:03.396Z,8.15
2023-05-14T17:26:30.673Z,7.90
2023-05-14T17:28:58.225Z,6.70
2023-05-14T17:31:25.830Z,6.75
2023-05-14T17:33:53.528Z,28.67
2023-05-14T17:36:21.267Z,6.78
2023-05-14T17:38:48.537Z,7.93
2023-05-14T17:41:15.757Z,8.30
2023-05-14T17:43:43.187Z,9.35
2023-05-14T17:46:10.841Z,10.52
2023-05-14T17:48:37.990Z,7.40
2023-05-14T17:51:05.661Z,6.57
2023-05-14T17:53:32.824Z,7.90
2023-05-14T17:56:00.397Z,8.10
2023-05-14T17:58:28.120Z,8.05
2023-05-14T18:00:56.027Z,8.00
2023-05-14T18:03:24.395Z,9.60
2023-05-14T18:05:53.681Z,7.68
2023-05-14T18:08:21.145Z,8.95
2023-05-14T18:10:50.325Z,8.77
2023-05-14T18:13:17.677Z,9.23
2023-05-14T18:15:45.091Z,8.43
2023-05-14T18:18:17.235Z,8.52
2023-05-14T18:20:44.547Z,10.10
2023-05-14T18:23:12.260Z,10.40
2023-05-14T18:25:40.451Z,11.45
2023-05-14T18:28:07.875Z,17.02
2023-05-14T18:30:36.433Z,9.50
2023-05-14T18:33:04.229Z,9.40
2023-05-14T18:35:32.561Z,8.65
2023-05-14T18:38:00.104Z,9.32
2023-05-14T18:40:27.811Z,8.93
2023-05-14T18:42:56.747Z,12.02
2023-05-14T18:45:24.676Z,17.27
2023-05-14T18:47:52.986Z,14.32
2023-05-14T18:50:20.164Z,9.65
2023-05-14T18:52:47.590Z,7.87
2023-05-14T18:55:15.892Z,9.07
2023-05-14T18:57:43.256Z,9.88
2023-05-14T19:00:11.338Z,11.93
2023-05-14T19:02:39.627Z,10.75
2023-05-14T19:05:08.022Z,10.02
2023-05-14T19:07:35.719Z,10.50
2023-05-14T19:10:03.778Z,10.45
2023-05-14T19:12:32.195Z,10.70
2023-05-14T19:14:59.677Z,11.85
2023-05-14T19:17:29.178Z,10.95
2023-05-14T19:20:04.873Z,10.52
2023-05-14T19:22:32.510Z,10.05
2023-05-14T19:24:59.680Z,10.75
2023-05-14T19:27:27.396Z,9.68
2023-05-14T19:29:55.253Z,10.38
2023-05-14T19:32:22.815Z,10.57
2023-05-14T19:34:51.511Z,12.85
2023-05-14T19:37:19.314Z,12.37
2023-05-14T19:39:46.875Z,11.95
2023-05-14T19:42:14.216Z,11.38
2023-05-14T19:44:42.524Z,12.45
2023-05-14T19:47:10.596Z,12.40
2023-05-14T19:49:38.079Z,14.63
2023-05-14T19:52:05.903Z,10.70
2023-05-14T19:54:33.287Z,12.52
2023-05-14T19:57:00.630Z,10.45
2023-05-14T19:59:29.921Z,14.20
2023-05-14T20:01:57.654Z,10.48
2023-05-14T20:04:26.495Z,10.20
2023-05-14T20:06:53.836Z,10.45
2023-05-14T20:09:23.009Z,10.05
2023-05-14T20:11:50.812Z,10.55
2023-05-14T20:14:18.112Z,9.38
2023-05-14T20:16:47.039Z,9.63
2023-05-14T20:19:14.733Z,9.02
2023-05-14T20:21:42.112Z,9.63
2023-05-14T20:24:09.612Z,10.60
2023-05-14T20:26:37.573Z,10.98
2023-05-14T20:29:04.789Z,9.68
2023-05-14T20:31:32.111Z,9.32
2023-05-14T20:33:59.607Z,9.75
2023-05-14T20:36:26.776Z,8.77
2023-05-14T20:38:53.999Z,9.15
2023-05-14T20:41:22.444Z,9.23
2023-05-14T20:43:49.620Z,10.68
2023-05-14T20:46:16.897Z,10.63
2023-05-14T20:48:44.538Z,9.25
2023-05-14T20:51:11.866Z,11.00
2023-05-14T20:53:39.166Z,9.52
2023-05-14T20:56:06.900Z,10.07
2023-05-14T20:58:35.339Z,10.30
2023-05-14T21:01:03.466Z,10.38
2023-05-14T21:03:31.052Z,9.55
2023-05-14T21:05:58.300Z,9.13
2023-05-14T21:08:25.682Z,9.80
2023-05-14T21:10:53.220Z,10.50
2023-05-14T21:13:20.499Z,9.27
2023-05-14T21:15:47.651Z,9.77
2023-05-14T21:18:15.028Z,8.70
2023-05-14T21:20:42.297Z,10.82
2023-05-14T21:23:09.425Z,8.43
2023-05-14T21:25:37.011Z,8.93
2023-05-14T21:28:04.247Z,9.60
2023-05-14T21:30:31.348Z,9.23
2023-05-14T21:32:58.925Z,9.30
2023-05-14T21:35:26.294Z,8.80
2023-05-14T21:37:53.709Z,8.38
2023-05-14T21:40:21.210Z,8.93
2023-05-14T21:42:48.489Z,8.38
2023-05-14T21:45:15.675Z,8.20
2023-05-14T21:47:43.316Z,7.68
2023-05-14T21:50:10.964Z,8.60
2023-05-14T21:52:38.530Z,8.40
2023-05-14T21:55:06.361Z,8.52
2023-05-14T21:57:34.564Z,7.35
2023-05-14T22:00:03.703Z,7.25
2023-05-14T22:02:32.209Z,8.43
2023-05-14T22:04:59.855Z,8.70
2023-05-14T22:07:27.117Z,9.07
2023-05-14T22:09:54.264Z,8.48
2023-05-14T22:12:21.650Z,7.87
2023-05-14T22:14:49.020Z,7.80
2023-05-14T22:17:16.153Z,8.85
2023-05-14T22:19:43.743Z,7.95
2023-05-14T22:22:10.926Z,8.20
2023-05-14T22:24:38.079Z,8.05
2023-05-14T22:27:05.803Z,8.90
2023-05-14T22:29:32.929Z,8.95
2023-05-14T22:32:00.084Z,7.82
2023-05-14T22:34:27.690Z,8.35
2023-05-14T22:36:54.858Z,8.00
2023-05-14T22:39:22.070Z,8.32
2023-05-14T22:41:55.043Z,7.30
2023-05-14T22:44:23.056Z,7.65
2023-05-14T22:46:50.934Z,7.65
2023-05-14T22:49:18.241Z,7.68
2023-05-14T22:51:45.875Z,7.85
2023-05-14T22:54:13.272Z,7.95
2023-05-14T22:56:40.491Z,7.57
2023-05-14T22:59:11.513Z,8.23
2023-05-14T23:01:39.389Z,8.05
2023-05-14T23:04:06.690Z,7.85
2023-05-14T23:06:34.208Z,7.72
2023-05-14T23:09:01.690Z,8.38
2023-05-14T23:11:29.066Z,7.85
2023-05-14T23:13:56.298Z,7.62
2023-05-14T23:16:24.086Z,7.93
2023-05-14T23:18:51.566Z,7.40
2023-05-14T23:21:18.923Z,8.18
2023-05-14T23:23:46.798Z,8.32
2023-05-14T23:26:14.126Z,8.15
2023-05-14T23:28:41.330Z,10.15
2023-05-14T23:31:08.831Z,9.40
2023-05-14T23:33:36.089Z,9.70
2023-05-14T23:36:03.638Z,9.40
2023-05-14T23:38:31.122Z,8.77
2023-05-14T23:40:58.299Z,9.00
2023-05-14T23:43:25.800Z,9.85
2023-05-14T23:45:53.381Z,9.93
2023-05-14T23:48:20.680Z,9.43
2023-05-14T23:50:47.895Z,9.25
2023-05-14T23:53:15.359Z,9.85
2023-05-14T23:55:42.877Z,9.18
2023-05-14T23:58:10.148Z,9.77
